Tiempo atmosférico en la estación meteorológica de Carcaixent, València/Valencia (25 m.)



Fecha
DESCASC
Temp. máxima en grados centígrados (hora)
DESCASC
Temp. mínima en grados centígrados (hora)
DESCASC
Temp. media en grados centígrados
DESCASC
Racha de viento máxima en m/sg (hora)
DESCASC
Velocidad máxima media en intervalos de 10 minutos(hora)
DESCASC
Precipitaciones diarias en mm
DESCASC
Precipitaciones de 00:00 a 06:00 en mm
DESCASC
Precipitaciones de 06:00 a 12:00 en mm
DESCASC
Precipitaciones de 12:00 a 18:00 en mm
DESCASC
Precipitaciones de 18:00 a 24:00 en mm
DESCASC
25-04-2019 22.4 (18:40) 12.2 (06:10) 17.3 13.89 (18:20) 7.5 (18:30) 0.2 0 0 0.2 0
24-04-2019 23.7 (17:40) 7.8 (06:20) 15.8 12.5 (13:30) 6.39 (13:10) 0 0 0 0 0
23-04-2019 22.2 (14:10) 8.4 (07:10) 15.3 10 (15:30) 5.83 (15:30) 1 0 0.2 0.8 0
22-04-2019 15.9 (17:20) 11.3 (00:00) 13.6 4.17 (00:10) 2.5 (16:00) 12.6 10.6 0.8 1.2 0
21-04-2019 14.3 (15:10) 11.5 (00:00) 12.9 12.78 (18:30) 6.39 (15:10) 90 0 1.6 3.2 85.2
20-04-2019 15.1 (18:50) 13.3 (00:00) 14.2 16.39 (06:50) 10.28 (06:50) 26 3.6 16.8 5.4 0.2
19-04-2019 14.7 (15:30) 12.1 (00:00) 13.4 14.17 (23:40) 7.5 (17:10) 41.8 7 1.2 17.4 16.2
18-04-2019 15.3 (10:40) 12.2 (00:00) 13.8 11.39 (09:00) 5.83 (12:00) 25 0 0 16 9
17-04-2019 19.8 (14:20) 12 (00:00) 15.9 8.06 (13:20) 5 (13:20) 0 0 0 0 0
16-04-2019 21.9 (15:50) 10.1 (00:00) 16 7.78 (17:20) 4.44 (19:30) 0 0 0 0 0
15-04-2019 19.4 (15:30) 11.9 (00:00) 15.6 6.67 (15:40) 3.89 (18:10) 0 0 0 0 0
14-04-2019 30.8 (18:10) 6.4 (00:00) 18.6 8.61 (14:30) 4.44 (14:30) 0 0 0 0 0
13-04-2019 23.9 (16:10) 7.6 (00:00) 15.7 7.22 (16:50) 4.17 (17:20) 0 0 0 0 0
12-04-2019 22.6 (16:10) 6.4 (05:50) 14.5 8.89 (17:50) 5 (17:20) 0 0 0 0 0
11-04-2019 24.4 (17:10) 7.3 (00:00) 15.8 5.83 (18:40) 3.33 (18:40) 0 0 0 0 0
10-04-2019 21.7 (14:20) 9.1 (00:00) 15.4 14.72 (17:40) 6.39 (15:40) 0.4 0 0.2 0.2 0
09-04-2019 21.8 (15:40) 10.5 (00:00) 16.1 16.67 (18:30) 9.17 (16:30) 2 0 0 0 2
08-04-2019 23.9 (16:30) 12.3 (00:00) 18.1 10.28 (13:50) 5.56 (17:50) 0 0 0 0 0
07-04-2019 21.6 (17:30) 8.8 (00:00) 15.2 12.22 (14:00) 6.67 (13:50) 0 0 0 0 0
06-04-2019 17.6 (14:00) 5.7 (00:00) 11.7 13.89 (16:30) 7.22 (14:40) 2.2 0 0.2 2 0
05-04-2019 21.4 (14:20) 6.8 (00:00) 14.1 14.72 (16:00) 7.22 (16:00) 6 0 0 5.2 0.8
04-04-2019 20.3 (15:50) 7.6 (00:00) 13.9 10 (17:00) 5.83 (17:20) 0 0 0 0 0
03-04-2019 25.5 (15:50) 8.3 (07:00) 16.9 13.33 (21:00) 7.78 (21:00) 0 0 0 0 0
02-04-2019 23.2 (15:40) 7.6 (00:00) 15.4 11.94 (17:50) 6.67 (17:50) 0.2 0 0.2 0 0
01-04-2019 15.1 (17:40) 11.4 (00:00) 13.3 5.56 (08:10) 2.78 (03:10) 18.4 5.4 13 0 0
31-03-2019 13.2 (16:50) 7.3 (00:00) 10.3 9.17 (18:30) 5.28 (17:20) 46.8 0 11.6 22.8 12.4
30-03-2019 16.7 (15:40) 4.4 (00:00) 10.6 7.78 (14:30) 4.72 (15:00) 0 0 0 0 0
29-03-2019 19 (14:20) 3.9 (00:00) 11.5 10 (15:30) 6.11 (15:10) 0 0 0 0 0
28-03-2019 20.4 (13:40) 3 (00:00) 11.7 10.83 (15:10) 5 (13:10) 0 0 0 0 0
27-03-2019 19.3 (13:30) 2.9 (00:00) 11.1 8.61 (13:50) 4.72 (14:30) 0 0 0 0 0

Gráficas

Temp. máximas Temp. mínimas Temp. medias Precipitaciones Rachas de viento máximas Velocidades máximas media en intervalos de 10 minutos

Datos horarios

Fecha y hora oficial Temperatura (ºC) Velocidad del viento (km/h) Dirección del viento Racha (km/h) Dirección de racha Precipitación (mm) Presión (hPa) Tendencia (hPa) Humedad (%)
2019-04-25 23:00:00 16.1 5 Oeste 19 Oeste 0 -- -- 51
2019-04-25 22:00:00 16.6 9 Sudoeste 28 Sudoeste 0 -- -- 56
2019-04-25 21:00:00 17.4 17 Oeste 36 Oeste 0 -- -- 54
2019-04-25 20:00:00 18.5 8 Sudoeste 43 Oeste 0 -- -- 51
2019-04-25 19:00:00 21.9 15 Oeste 50 Oeste 0 -- -- 43
2019-04-25 18:00:00 20.6 12 Sudoeste 32 Oeste 0 -- -- 47
2019-04-25 17:00:00 20 16 Oeste 33 Oeste 0 -- -- 53
2019-04-25 16:00:00 21.7 11 Oeste 26 Sudoeste 0 -- -- 50
2019-04-25 15:00:00 18.6 12 Oeste 34 Oeste 0.2 -- -- 60
2019-04-25 14:00:00 17.7 11 Oeste 22 Oeste 0 -- -- 62
2019-04-25 13:00:00 17.1 6 Oeste 24 Oeste 0 -- -- 66
2019-04-25 12:00:00 18.1 13 Oeste 26 Noroeste 0 -- -- 62
2019-04-25 11:00:00 18.1 13 Noroeste 27 Oeste 0 -- -- 63
2019-04-25 10:00:00 17.5 12 Oeste 20 Oeste 0 -- -- 66
2019-04-25 09:00:00 16 8 Oeste 18 Noroeste 0 -- -- 70
2019-04-25 08:00:00 14.1 7 Oeste 14 Noroeste 0 -- -- 75
2019-04-25 07:00:00 12.5 6 Sur 13 Sudeste 0 -- -- 80
2019-04-25 06:00:00 12.4 4 Sur 10 Sudeste 0 -- -- 82
2019-04-25 05:00:00 13.5 4 Sudeste 10 Sur 0 -- -- 77
2019-04-25 04:00:00 15.3 8 Sur 17 Sur 0 -- -- 68
2019-04-25 03:00:00 14.6 5 Sur 17 Sur 0 -- -- 74
2019-04-25 02:00:00 16.2 10 Sur 22 Sudoeste 0 -- -- 63
2019-04-25 01:00:00 13.3 4 Sur 10 Sur 0 -- -- 79
2019-04-25 00:00:00 14.9 10 Sur 15 Sur 0 -- -- 69
2019-04-24 23:00:00 14.7 7 Sur 14 Sur 0 -- -- 70
2019-04-24 22:00:00 16.2 6 Sur 17 Sur 0 -- -- 66
2019-04-24 21:00:00 18.1 10 Sur 30 Sur 0 -- -- 60
2019-04-24 20:00:00 21.1 16 Sur 32 Sur 0 -- -- 48
2019-04-24 19:00:00 22.7 18 Sur 29 Sur 0 -- -- 42
2019-04-24 18:00:00 23.6 15 Sudoeste 29 Sudoeste 0 -- -- 39
2019-04-24 17:00:00 23.5 15 Sudoeste 29 Sudoeste 0 -- -- 40
2019-04-24 16:00:00 22.6 14 Sudoeste 35 Sudoeste 0 -- -- 40
2019-04-24 15:00:00 21.7 18 Oeste 35 Oeste 0 -- -- 45
2019-04-24 14:00:00 20.6 18 Sudoeste 45 Sudoeste 0 -- -- 42
2019-04-24 13:00:00 19.2 20 Sudoeste 37 Sudoeste 0 -- -- 44
2019-04-24 12:00:00 17.9 19 Sudoeste 37 Sur 0 -- -- 45
2019-04-24 11:00:00 16.5 14 Sudoeste 29 Sudoeste 0 -- -- 52
2019-04-24 10:00:00 14.6 10 Sudoeste 26 Sudoeste 0 -- -- 55
2019-04-24 09:00:00 12.6 8 Sur 19 Sur 0 -- -- 63
2019-04-24 08:00:00 9.5 6 Sur 15 Sur 0 -- -- 75
2019-04-24 07:00:00 8.3 7 Sur 14 Sur 0 -- -- 78
2019-04-24 06:00:00 8.6 3 Sudeste 22 Sur 0 -- -- 77
2019-04-24 05:00:00 9.2 11 Sur 18 Sur 0 -- -- 74
2019-04-24 04:00:00 9.4 10 Sur 18 Sur 0 -- -- 74
2019-04-24 03:00:00 9 8 Sur 11 Sur 0 -- -- 77
2019-04-24 02:00:00 10 5 Sur 17 Sudoeste 0 -- -- 75
2019-04-24 01:00:00 11.5 8 Sudoeste 19 Sudoeste 0 -- -- 67
2019-04-24 00:00:00 11.1 5 Sudoeste 16 Sudoeste 0 -- -- 70
2019-04-23 23:00:00 11.8 4 Sur 23 Noroeste 0 -- -- 74
2019-04-23 22:00:00 13.6 14 Noroeste 27 Noroeste 0 -- -- 65
2019-04-23 21:00:00 14.2 3 Sudeste 21 Norte 0 -- -- 80
2019-04-23 20:00:00 16.3 16 Noroeste 26 Noroeste 0 -- -- 77
2019-04-23 19:00:00 17.1 4 Sudeste 9 Sur 0 -- -- 79
2019-04-23 18:00:00 16 4 Sudeste 9 Sudeste 0.2 -- -- 83
2019-04-23 17:00:00 16 4 Sudeste 14 Noroeste 0.2 -- -- 81
2019-04-23 16:00:00 15.8 9 Noroeste 36 Noroeste 0.4 -- -- 81
2019-04-23 15:00:00 21.4 8 Sudoeste 22 Sudoeste 0 -- -- 48
2019-04-23 14:00:00 22 5 Sudoeste 13 Oeste 0 -- -- 49
2019-04-23 13:00:00 21 4 Oeste 16 Sur 0 -- -- 55
2019-04-23 12:00:00 20.5 5 Sudoeste 18 Sudeste 0 -- -- 57
2019-04-23 11:00:00 17.7 9 Sur 15 Sur 0 -- -- 66
2019-04-23 10:00:00 12.8 6 Sur 14 Sur 0 -- -- 98
2019-04-23 09:00:00 10.9 0 Calma 5 Sur 0.2 -- -- 98
2019-04-23 08:00:00 8.9 0 Calma -- -- 0 -- -- 98
2019-04-23 07:00:00 8.5 0 Calma -- -- 0 -- -- 97
2019-04-23 06:00:00 8.9 0 Calma 2 Sur 0 -- -- 97
2019-04-23 05:00:00 8.9 0 Calma 5 Sudoeste 0 -- -- 96
2019-04-23 04:00:00 9.2 0 Calma 5 Sudeste 0 -- -- 96
2019-04-23 03:00:00 9.7 0 Calma 4 Nordeste 0 -- -- 94
2019-04-23 02:00:00 10.9 3 Sur 6 Sudeste 0 -- -- 94
2019-04-23 01:00:00 12.5 3 Sur 6 Sudeste 0 -- -- 94
2019-04-23 00:00:00 13.1 0 Calma 5 Norte 0 -- -- 93
2019-04-22 23:00:00 13.3 0 Calma 5 Norte 0 -- -- 93
2019-04-22 22:00:00 13.6 2 Sudeste 8 Sudeste 0 -- -- 91
2019-04-22 21:00:00 14.1 5 Sur 9 Sur 0 -- -- 88
2019-04-22 20:00:00 14.9 4 Sur 8 Sur 0 -- -- 92
2019-04-22 19:00:00 15.6 4 Sur 8 Sur 0 -- -- 91
2019-04-22 18:00:00 15.9 4 Sudeste 13 Sur 0 -- -- 90
2019-04-22 17:00:00 15.2 7 Sudeste 14 Sudeste 0 -- -- 94
2019-04-22 16:00:00 14.8 9 Sur 14 Sur 0 -- -- 96
2019-04-22 15:00:00 14.4 7 Sur 13 Sur 0 -- -- 98
2019-04-22 14:00:00 13.5 5 Sur 8 Sur 0.4 -- -- 99
2019-04-22 13:00:00 13.1 0 Calma 9 Este 0.8 -- -- 98
2019-04-22 12:00:00 13.4 2 Este 7 Sudeste 0.4 -- -- 99
2019-04-22 11:00:00 13.1 3 Sur 6 Sur 0 -- -- 99
2019-04-22 10:00:00 12.4 3 Sur 10 Este 0 -- -- 100
2019-04-22 09:00:00 11.6 3 Oeste 9 Sudoeste 0.2 -- -- 100
2019-04-22 08:00:00 11.5 4 Noroeste 14 Norte 0 -- -- 100
2019-04-22 07:00:00 11.4 4 Oeste 9 Sudoeste 0.2 -- -- 100
2019-04-22 06:00:00 11.4 0 Calma 10 Sudeste 0 -- -- 100
2019-04-22 05:00:00 11.5 6 Sur 10 Sur 0 -- -- 99
2019-04-22 04:00:00 11.7 4 Sur 9 Norte 1.4 -- -- 99
2019-04-22 03:00:00 11.8 5 Norte 13 Nordeste 3 -- -- 99
2019-04-22 02:00:00 11.5 3 Noroeste 10 Noroeste 1.6 -- -- 99
2019-04-22 01:00:00 11.6 3 Norte 15 Norte 4.6 -- -- 99
2019-04-22 00:00:00 11.8 13 Norte 31 Norte 17.8 -- -- 99
2019-04-21 23:00:00 11.5 11 Noroeste 25 Norte 12.2 -- -- 99
2019-04-21 22:00:00 11.6 12 Norte 27 Norte 16 -- -- 98
2019-04-21 21:00:00 11.7 17 Norte 35 Norte 22.2 -- -- 98
2019-04-21 20:00:00 12.1 14 Norte 46 Nordeste 12.4 -- -- 97
2019-04-21 19:00:00 12.5 15 Norte 46 Nordeste 4.6 -- -- 94
2019-04-21 18:00:00 13 9 Nordeste 38 Nordeste 0.8 -- -- 92
2019-04-21 17:00:00 12.6 20 Nordeste 44 Norte 1 -- -- 91
2019-04-21 16:00:00 13.9 21 Nordeste 41 Nordeste 0.2 -- -- 90
2019-04-21 15:00:00 14.2 19 Nordeste 45 Norte 0 -- -- 86
2019-04-21 14:00:00 13.5 15 Nordeste 32 Norte 0.2 -- -- 92
2019-04-21 13:00:00 12.4 14 Nordeste 33 Nordeste 1 -- -- 94
2019-04-21 12:00:00 13 19 Nordeste 37 Nordeste 0.6 -- -- 91
2019-04-21 11:00:00 13.9 18 Nordeste 36 Nordeste 0 -- -- 82
2019-04-21 10:00:00 13.8 14 Nordeste 33 Nordeste 0 -- -- 79
2019-04-21 09:00:00 13.2 12 Nordeste 28 Nordeste 0 -- -- 82
2019-04-21 08:00:00 12.5 10 Nordeste 31 Este 1 -- -- 87
2019-04-21 07:00:00 13.1 17 Nordeste 45 Nordeste 0 -- -- 83
2019-04-21 06:00:00 14.1 15 Nordeste 29 Nordeste 0 -- -- 73
2019-04-21 05:00:00 14 13 Nordeste 35 Nordeste 0 -- -- 72
2019-04-21 04:00:00 13.8 12 Nordeste 26 Nordeste 0 -- -- 72
2019-04-21 03:00:00 13.9 16 Nordeste 28 Nordeste 0 -- -- 72
2019-04-21 02:00:00 13.8 11 Nordeste 28 Este 0 -- -- 76
2019-04-21 01:00:00 14 16 Nordeste 40 Nordeste 0 -- -- 75
2019-04-21 00:00:00 13.7 14 Nordeste 33 Nordeste 0 -- -- 79
2019-04-20 23:00:00 14 17 Nordeste 40 Nordeste 0 -- -- 81
2019-04-20 22:00:00 14.4 19 Nordeste 46 Nordeste 0 -- -- 82
2019-04-20 21:00:00 14.4 23 Nordeste 48 Nordeste 0.2 -- -- 79
2019-04-20 20:00:00 14.7 18 Nordeste 40 Nordeste 0 -- -- 81
2019-04-20 19:00:00 15 22 Nordeste 47 Norte 0 -- -- 77
2019-04-20 18:00:00 14.7 18 Nordeste 40 Nordeste 0 -- -- 79
2019-04-20 17:00:00 14.9 23 Nordeste 45 Nordeste 0 -- -- 81
2019-04-20 16:00:00 14.5 19 Nordeste 38 Nordeste 0 -- -- 86
2019-04-20 15:00:00 14.2 21 Nordeste 44 Nordeste 0 -- -- 88
2019-04-20 14:00:00 13.8 20 Nordeste 40 Nordeste 0.8 -- -- 92
2019-04-20 13:00:00 13.5 21 Nordeste 41 Nordeste 4.6 -- -- 94
2019-04-20 12:00:00 13.4 21 Nordeste 49 Nordeste 4.6 -- -- 95
2019-04-20 11:00:00 13.4 28 Nordeste 58 Nordeste 3.4 -- -- 93
2019-04-20 10:00:00 13.3 23 Nordeste 46 Nordeste 4.6 -- -- 93
2019-04-20 09:00:00 13.5 22 Nordeste 45 Nordeste 3 -- -- 91
2019-04-20 08:00:00 13.9 22 Nordeste 48 Nordeste 1.2 -- -- 88
2019-04-20 07:00:00 14.6 34 Nordeste 59 Nordeste 0 -- -- 83
2019-04-20 06:00:00 14.4 26 Nordeste 52 Norte 0 -- -- 87
2019-04-20 05:00:00 14.3 21 Nordeste 47 Nordeste 0 -- -- 89
2019-04-20 04:00:00 14 24 Nordeste 48 Nordeste 0.8 -- -- 92
2019-04-20 03:00:00 14 21 Nordeste 51 Nordeste 1.2 -- -- 93
2019-04-20 02:00:00 14 29 Nordeste 55 Nordeste 1 -- -- 93
2019-04-20 01:00:00 14.1 24 Nordeste 48 Nordeste 0.6 -- -- 96
2019-04-20 00:00:00 14.1 20 Nordeste 51 Nordeste 4 -- -- 97
2019-04-19 23:00:00 14.1 24 Nordeste 51 Nordeste 3.2 -- -- 96
2019-04-19 22:00:00 14.2 23 Nordeste 41 Nordeste 0.6 -- -- 96
2019-04-19 21:00:00 14.2 20 Nordeste 40 Nordeste 2 -- -- 97
2019-04-19 20:00:00 14.2 15 Nordeste 42 Este 3 -- -- 97
2019-04-19 19:00:00 14.3 21 Nordeste 44 Este 3.4 -- -- 97
2019-04-19 18:00:00 14.3 24 Este 49 Este 3.4 -- -- 97
2019-04-19 17:00:00 14.6 25 Nordeste 44 Nordeste 3.2 -- -- 96
2019-04-19 16:00:00 14.7 22 Este 41 Nordeste 2.4 -- -- 97
2019-04-19 15:00:00 14.6 19 Este 38 Este 2 -- -- 97
2019-04-19 14:00:00 12.4 3 Sudeste 6 Sudoeste 3.6 -- -- 97
2019-04-19 13:00:00 12.7 4 Sudeste 8 Sur 2.8 -- -- 97
2019-04-19 12:00:00 13.1 3 Sur 9 Sur 1.2 -- -- 97
2019-04-19 11:00:00 13.1 5 Sur 9 Sur 0 -- -- 97
2019-04-19 10:00:00 12.8 5 Sur 9 Sudeste 0 -- -- 98
2019-04-19 09:00:00 12.5 5 Sur 9 Sur 0 -- -- 98
2019-04-19 08:00:00 12.2 5 Sur 9 Sur 0 -- -- 98
2019-04-19 07:00:00 12.1 3 Sudeste 7 Sur 0 -- -- 98
2019-04-19 06:00:00 12.3 5 Sur 9 Sur 0.2 -- -- 98
2019-04-19 05:00:00 12.3 2 Sur 6 Sudoeste 1.4 -- -- 98
2019-04-19 04:00:00 12.4 0 Calma 6 Sur 1.4 -- -- 98
2019-04-19 03:00:00 12.4 3 Sur 8 Sur 0.8 -- -- 98
2019-04-19 02:00:00 12.4 8 Oeste 17 Oeste 1 -- -- 98
2019-04-19 01:00:00 12.4 3 Este 13 Oeste 2.2 -- -- 97
2019-04-19 00:00:00 12.6 8 Oeste 17 Oeste 2 -- -- 97
2019-04-18 23:00:00 12.3 8 Sudeste 22 Oeste 1.2 -- -- 96
2019-04-18 22:00:00 12.3 9 Este 21 Este 1.4 -- -- 96
2019-04-18 21:00:00 12.3 3 Sur 12 Sur 1.2 -- -- 96
2019-04-18 20:00:00 12.4 4 Sur 39 Noroeste 1.8 -- -- 96
2019-04-18 19:00:00 15 4 Noroeste 17 Nordeste 1.4 -- -- 96
2019-04-18 18:00:00 14.8 8 Nordeste 22 Nordeste 0.4 -- -- 97
2019-04-18 17:00:00 14.4 13 Nordeste 26 Nordeste 1.4 -- -- 97
2019-04-18 16:00:00 14.5 13 Nordeste 28 Nordeste 3 -- -- 96
2019-04-18 15:00:00 14.4 14 Nordeste 29 Nordeste 4.2 -- -- 96
2019-04-18 14:00:00 14.3 11 Nordeste 36 Nordeste 5 -- -- 95
2019-04-18 13:00:00 14.4 16 Nordeste 32 Nordeste 2 -- -- 93
2019-04-18 12:00:00 14.7 21 Nordeste 37 Nordeste 0 -- -- 89
2019-04-18 11:00:00 15.3 16 Nordeste 34 Nordeste 0 -- -- 84
2019-04-18 10:00:00 15.1 13 Este 32 Este 0 -- -- 83
2019-04-18 09:00:00 15.1 19 Nordeste 41 Nordeste 0 -- -- 83
2019-04-18 08:00:00 14.7 12 Nordeste 26 Nordeste 0 -- -- 86
2019-04-18 07:00:00 13.8 7 Norte 12 Nordeste 0 -- -- 85
2019-04-18 06:00:00 13.6 10 Nordeste 18 Nordeste 0 -- -- 86
2019-04-18 05:00:00 13.6 3 Este 13 Nordeste 0 -- -- 87
2019-04-18 04:00:00 14.1 3 Nordeste 11 Noroeste 0 -- -- 84
2019-04-18 03:00:00 14.5 4 Norte 20 Nordeste 0 -- -- 83
2019-04-18 02:00:00 14.9 6 Nordeste 15 Nordeste 0 -- -- 82
2019-04-18 01:00:00 15 7 Nordeste 18 Nordeste 0 -- -- 80
2019-04-18 00:00:00 15.1 11 Nordeste 21 Nordeste 0 -- -- 82
2019-04-17 23:00:00 15.1 12 Nordeste 18 Nordeste 0 -- -- 82
2019-04-17 22:00:00 15.1 9 Nordeste 18 Nordeste 0 -- -- 82
2019-04-17 21:00:00 15.2 9 Nordeste 21 Nordeste 0 -- -- 79
2019-04-17 20:00:00 16.1 9 Nordeste 21 Este 0 -- -- 75
2019-04-17 19:00:00 16.7 12 Este 22 Este 0 -- -- 72
2019-04-17 18:00:00 17.8 12 Este 22 Este 0 -- -- 66
2019-04-17 17:00:00 18.1 12 Este 26 Este 0 -- -- 67
2019-04-17 16:00:00 19 14 Nordeste 26 Nordeste 0 -- -- 64
2019-04-17 15:00:00 19.3 13 Nordeste 27 Nordeste 0 -- -- 61
2019-04-17 14:00:00 19.3 16 Nordeste 29 Nordeste 0 -- -- 63
2019-04-17 13:00:00 19.4 16 Nordeste 27 Nordeste 0 -- -- 64
2019-04-17 12:00:00 18.5 13 Nordeste 23 Nordeste 0 -- -- 68
2019-04-17 11:00:00 17.1 9 Nordeste 15 Nordeste 0 -- -- 73
2019-04-17 10:00:00 14.9 3 Nordeste 11 Nordeste 0 -- -- 80
2019-04-17 09:00:00 14.2 6 Nordeste 13 Nordeste 0 -- -- 82
2019-04-17 08:00:00 14.1 7 Nordeste 12 Nordeste 0 -- -- 83
2019-04-17 07:00:00 13.9 6 Nordeste 13 Nordeste 0 -- -- 85
2019-04-17 06:00:00 13.9 7 Nordeste 13 Nordeste 0 -- -- 85
2019-04-17 05:00:00 14.1 6 Nordeste 14 Norte 0 -- -- 85
2019-04-17 04:00:00 14.3 3 Nordeste 13 Nordeste 0 -- -- 86
2019-04-17 03:00:00 14.3 7 Nordeste 12 Nordeste 0 -- -- 86
2019-04-17 02:00:00 14.3 3 Nordeste 10 Nordeste 0 -- -- 87
2019-04-17 01:00:00 13.3 4 Nordeste 7 Norte 0 -- -- 90
2019-04-17 00:00:00 12 4 Sur 6 Sur 0 -- -- 88
2019-04-16 23:00:00 13 3 Nordeste 8 Nordeste 0 -- -- 86
2019-04-16 22:00:00 13.8 5 Nordeste 9 Nordeste 0 -- -- 82
2019-04-16 21:00:00 15.2 5 Nordeste 18 Nordeste 0 -- -- 76
2019-04-16 20:00:00 17.6 13 Nordeste 25 Nordeste 0 -- -- 59
2019-04-16 19:00:00 19.6 14 Nordeste 22 Nordeste 0 -- -- 55
2019-04-16 18:00:00 20.7 12 Este 28 Este 0 -- -- 53
2019-04-16 17:00:00 21.1 15 Este 27 Nordeste 0 -- -- 54
2019-04-16 16:00:00 21.7 14 Este 28 Este 0 -- -- 52
2019-04-16 15:00:00 21.5 14 Nordeste 27 Nordeste 0 -- -- 54
2019-04-16 14:00:00 20.4 12 Nordeste 24 Nordeste 0 -- -- 59
2019-04-16 13:00:00 20.1 14 Nordeste 26 Este 0 -- -- 61
2019-04-16 12:00:00 19.1 13 Nordeste 24 Nordeste 0 -- -- 67
2019-04-16 11:00:00 18.3 9 Nordeste 19 Nordeste 0 -- -- 69
2019-04-16 10:00:00 16.3 5 Norte 15 Nordeste 0 -- -- 75
2019-04-16 09:00:00 14.2 5 Norte 12 Norte 0 -- -- 86
2019-04-16 08:00:00 11.4 9 Sur 15 Sur 0 -- -- 95
2019-04-16 07:00:00 10.6 3 Sudoeste 10 Sudoeste 0 -- -- 94
2019-04-16 06:00:00 10.7 5 Sudoeste 9 Sudoeste 0 -- -- 93
2019-04-16 05:00:00 11 4 Sur 7 Sur 0 -- -- 90
2019-04-16 04:00:00 12.3 3 Sudeste 6 Sudoeste 0 -- -- 87
2019-04-16 03:00:00 14.6 0 Calma 6 Sudoeste 0 -- -- 85
2019-04-16 02:00:00 15.1 3 Nordeste 10 Nordeste 0 -- -- 83
2019-04-16 01:00:00 15.2 6 Nordeste 13 Norte 0 -- -- 82
2019-04-16 00:00:00 15.3 6 Norte 15 Norte 0 -- -- 81
2019-04-15 23:00:00 15.4 7 Norte 17 Norte 0 -- -- 82
2019-04-15 22:00:00 15.5 10 Norte 17 Norte 0 -- -- 81
2019-04-15 21:00:00 15.7 9 Nordeste 16 Norte 0 -- -- 78
2019-04-15 20:00:00 16.8 7 Nordeste 18 Nordeste 0 -- -- 74
2019-04-15 19:00:00 17.9 13 Nordeste 22 Nordeste 0 -- -- 71
2019-04-15 18:00:00 18.1 14 Nordeste 23 Nordeste 0 -- -- 73
2019-04-15 17:00:00 17.9 11 Nordeste 19 Nordeste 0 -- -- 75
2019-04-15 16:00:00 19.2 11 Nordeste 24 Este 0 -- -- 66
2019-04-15 15:00:00 18.6 12 Nordeste 21 Nordeste 0 -- -- 68
2019-04-15 14:00:00 17.9 12 Nordeste 22 Nordeste 0 -- -- 68
2019-04-15 13:00:00 17.7 12 Nordeste 22 Este 0 -- -- 69
2019-04-15 12:00:00 17.2 9 Nordeste 19 Nordeste 0 -- -- 70
2019-04-15 11:00:00 15.8 5 Norte 13 Nordeste 0 -- -- 78
2019-04-15 10:00:00 15.2 4 Noroeste 10 Noroeste 0 -- -- 84
2019-04-15 09:00:00 14.8 5 Norte 9 Noroeste 0 -- -- 86
2019-04-15 08:00:00 14.4 3 Noroeste 10 Norte 0 -- -- 88
2019-04-15 07:00:00 14.2 6 Norte 17 Nordeste 0 -- -- 89
2019-04-15 06:00:00 14.2 9 Nordeste 16 Nordeste 0 -- -- 91
2019-04-15 05:00:00 12.5 5 Norte 8 Norte 0 -- -- 91
2019-04-15 04:00:00 12.1 0 Calma 6 Sur 0 -- -- 86
2019-04-15 03:00:00 13 4 Sur 6 Sur 0 -- -- 86
2019-04-15 02:00:00 14.9 3 Oeste 13 Norte 0 -- -- 81
2019-04-15 01:00:00 16.1 9 Norte 18 Norte 0 -- -- 80
2019-04-15 00:00:00 17.2 12 Norte 26 Nordeste 0 -- -- 72
2019-04-14 23:00:00 18.5 15 Nordeste 26 Nordeste 0 -- -- 66
2019-04-14 22:00:00 20.2 7 Sur 12 Sudeste 0 -- -- 51
2019-04-14 21:00:00 23.9 4 Sudoeste 17 Oeste 0 -- -- 42
2019-04-14 20:00:00 27.9 9 Oeste 24 Oeste 0 -- -- 31
2019-04-14 19:00:00 29.8 13 Oeste 25 Oeste 0 -- -- 28
2019-04-14 18:00:00 30.7 13 Oeste 22 Noroeste 0 -- -- 27
2019-04-14 17:00:00 30.2 10 Oeste 23 Oeste 0 -- -- 27
2019-04-14 16:00:00 30.2 11 Oeste 29 Oeste 0 -- -- 28
2019-04-14 15:00:00 29.8 13 Noroeste 31 Oeste 0 -- -- 26
2019-04-14 14:00:00 29.1 14 Oeste 27 Noroeste 0 -- -- 26
2019-04-14 13:00:00 27.6 11 Noroeste 24 Oeste 0 -- -- 28
2019-04-14 12:00:00 25.2 6 Sur 19 Sudoeste 0 -- -- 34
2019-04-14 11:00:00 22.4 9 Sudoeste 22 Sur 0 -- -- 37
2019-04-14 10:00:00 19.5 13 Sur 20 Sur 0 -- -- 44
2019-04-14 09:00:00 15 8 Sur 17 Sur 0 -- -- 56
2019-04-14 08:00:00 8.1 6 Sur 10 Sur 0 -- -- 77
2019-04-14 07:00:00 7.1 3 Sudoeste 10 Sur 0 -- -- 80
2019-04-14 06:00:00 9.2 6 Sur 14 Sur 0 -- -- 70
2019-04-14 05:00:00 8.7 9 Sur 15 Sur 0 -- -- 74
2019-04-14 04:00:00 6.8 4 Sur 12 Sudoeste 0 -- -- 86
2019-04-14 03:00:00 6.4 3 Sudoeste 6 Sudoeste 0 -- -- 87
2019-04-14 02:00:00 7.6 3 Sudoeste 6 Sudoeste 0 -- -- 87
2019-04-14 01:00:00 8.1 3 Sudoeste 6 Sudeste 0 -- -- 86
2019-04-14 00:00:00 8.9 0 Calma 5 Sudeste 0 -- -- 80
2019-04-13 23:00:00 10.5 4 Sudeste 6 Sudeste 0 -- -- 78
2019-04-13 22:00:00 13.2 0 Calma 9 Oeste 0 -- -- 69
2019-04-13 21:00:00 17.2 4 Nordeste 11 Nordeste 0 -- -- 42
2019-04-13 20:00:00 21.5 2 Sudeste 20 Sudeste 0 -- -- 23
2019-04-13 19:00:00 22.7 12 Sudeste 22 Sudeste 0 -- -- 18
2019-04-13 18:00:00 23.9 7 Este 22 Nordeste 0 -- -- 21
2019-04-13 17:00:00 23.6 12 Nordeste 26 Este 0 -- -- 22
2019-04-13 16:00:00 23.7 9 Este 19 Nordeste 0 -- -- 22
2019-04-13 15:00:00 23.5 5 Nordeste 20 Nordeste 0 -- -- 25
2019-04-13 14:00:00 22.4 7 Norte 22 Norte 0 -- -- 30
2019-04-13 13:00:00 21.2 6 Norte 17 Norte 0 -- -- 30
2019-04-13 12:00:00 20 5 Norte 14 Norte 0 -- -- 38
2019-04-13 11:00:00 17.5 4 Oeste 13 Sur 0 -- -- 43
2019-04-13 10:00:00 14.6 7 Sudoeste 13 Sur 0 -- -- 56
2019-04-13 09:00:00 11.5 8 Sur 12 Sudeste 0 -- -- 68
2019-04-13 08:00:00 8.2 7 Sur 15 Sur 0 -- -- 82
2019-04-13 07:00:00 8.1 6 Sur 14 Sur 0 -- -- 82
2019-04-13 06:00:00 8.4 10 Sur 15 Sur 0 -- -- 86
2019-04-13 05:00:00 7.8 4 Sur 10 Sur 0 -- -- 88
2019-04-13 04:00:00 8 6 Sur 9 Sudoeste 0 -- -- 91
2019-04-13 03:00:00 8.3 6 Sur 10 Sudeste 0 -- -- 92
2019-04-13 02:00:00 8.4 6 Oeste 7 Oeste 0 -- -- 90
2019-04-13 01:00:00 8.5 4 Sudeste 6 Sudeste 0 -- -- 88
2019-04-13 00:00:00 9.1 2 Sudeste 8 Sudeste 0 -- -- 84
2019-04-12 23:00:00 10.2 2 Oeste 5 Sudeste 0 -- -- 80
2019-04-12 22:00:00 12.2 3 Sur 5 Sudoeste 0 -- -- 73
2019-04-12 21:00:00 15.8 0 Calma 10 Sudeste 0 -- -- 57
2019-04-12 20:00:00 19.1 8 Sudeste 18 Sudeste 0 -- -- 44
2019-04-12 19:00:00 20.4 12 Este 27 Sudeste 0 -- -- 39
2019-04-12 18:00:00 20.6 17 Este 32 Este 0 -- -- 37
2019-04-12 17:00:00 21.5 18 Sudeste 30 Sudeste 0 -- -- 36
2019-04-12 16:00:00 22.3 4 Norte 16 Sudeste 0 -- -- 28
2019-04-12 15:00:00 21.1 4 Este 14 Sudeste 0 -- -- 33
2019-04-12 14:00:00 20.3 5 Norte 13 Noroeste 0 -- -- 35
2019-04-12 13:00:00 19.4 5 Noroeste 12 Norte 0 -- -- 36
2019-04-12 12:00:00 17.9 5 Sur 15 Sur 0 -- -- 42
2019-04-12 11:00:00 16 6 Sudoeste 16 Sur 0 -- -- 45
2019-04-12 10:00:00 13.9 8 Sur 16 Sudoeste 0 -- -- 55
2019-04-12 09:00:00 11.2 6 Sur 11 Sur 0 -- -- 67
2019-04-12 08:00:00 6.9 7 Sur 11 Sur 0 -- -- 82
2019-04-12 07:00:00 6.6 6 Sur 10 Sur 0 -- -- 83
2019-04-12 06:00:00 6.5 6 Sur 9 Sur 0 -- -- 86
2019-04-12 05:00:00 6.7 4 Sur 8 Sur 0 -- -- 86
2019-04-12 04:00:00 8 6 Sur 12 Sudeste 0 -- -- 88
2019-04-12 03:00:00 7.9 4 Sur 10 Sur 0 -- -- 90
2019-04-12 02:00:00 8.3 3 Sur 15 Sudoeste 0 -- -- 90
2019-04-12 01:00:00 8.9 3 Sudeste 5 Sur 0 -- -- 88
2019-04-12 00:00:00 10.2 2 Sudeste 5 Sur 0 -- -- 85
2019-04-11 23:00:00 12 4 Sudeste 8 Noroeste 0 -- -- 82
2019-04-11 22:00:00 14.8 6 Norte 16 Norte 0 -- -- 74
2019-04-11 21:00:00 17.3 9 Norte 14 Norte 0 -- -- 59
2019-04-11 20:00:00 20.2 7 Nordeste 17 Nordeste 0 -- -- 38
2019-04-11 19:00:00 22 8 Nordeste 21 Nordeste 0 -- -- 34
2019-04-11 18:00:00 23.6 6 Oeste 18 Noroeste 0 -- -- 29
2019-04-11 17:00:00 24.1 9 Oeste 17 Noroeste 0 -- -- 31
2019-04-11 16:00:00 22.6 4 Este 12 Oeste 0 -- -- 33
2019-04-11 15:00:00 21.6 8 Sudeste 18 Sur 0 -- -- 35
2019-04-11 14:00:00 20.5 5 Sur 12 Oeste 0 -- -- 36
2019-04-11 13:00:00 19.8 5 Sudoeste 18 Sudoeste 0 -- -- 37
2019-04-11 12:00:00 18.2 6 Sur 15 Sur 0 -- -- 45
2019-04-11 11:00:00 16.2 6 Sudoeste 18 Sur 0 -- -- 50
2019-04-11 10:00:00 13.8 8 Sur 17 Sur 0 -- -- 57
2019-04-11 09:00:00 11.3 9 Sur 16 Sur 0 -- -- 67
2019-04-11 08:00:00 7.6 8 Sur 13 Sur 0 -- -- 81
2019-04-11 07:00:00 7.4 8 Sur 13 Sur 0 -- -- 81
2019-04-11 06:00:00 7.4 6 Sur 12 Sur 0 -- -- 82
2019-04-11 05:00:00 7.4 6 Sur 9 Sur 0 -- -- 82
2019-04-11 04:00:00 8.5 6 Sur 12 Sur 0 -- -- 77
2019-04-11 03:00:00 8.9 7 Sur 12 Sur 0 -- -- 76
2019-04-11 02:00:00 9.4 8 Sur 13 Sudeste 0 -- -- 75
2019-04-11 01:00:00 9.1 6 Sur 11 Sur 0 -- -- 78
2019-04-11 00:00:00 9.1 5 Sudeste 9 Sur 0 -- -- 79
2019-04-10 23:00:00 9.9 4 Sur 6 Sur 0 -- -- 81
2019-04-10 22:00:00 11.6 4 Sur 7 Sudeste 0 -- -- 75
2019-04-10 21:00:00 14.6 4 Sudeste 10 Noroeste 0 -- -- 61
2019-04-10 20:00:00 17.3 4 Oeste 15 Noroeste 0 -- -- 44
2019-04-10 19:00:00 17.4 9 Noroeste 28 Noroeste 0 -- -- 45
2019-04-10 18:00:00 16.8 10 Este 53 Norte 0 -- -- 54
2019-04-10 17:00:00 18.7 6 Sudeste 14 Sudeste 0 -- -- 45
2019-04-10 16:00:00 17 5 Este 41 Norte 0.2 -- -- 50
2019-04-10 15:00:00 20.8 17 Oeste 40 Oeste 0 -- -- 39
2019-04-10 14:00:00 21 17 Noroeste 36 Noroeste 0 -- -- 41
2019-04-10 13:00:00 19.6 19 Noroeste 38 Noroeste 0 -- -- 44
2019-04-10 12:00:00 18.5 15 Oeste 34 Oeste 0 -- -- 49
2019-04-10 11:00:00 16.6 16 Oeste 36 Noroeste 0 -- -- 55
2019-04-10 10:00:00 14.5 20 Oeste 39 Oeste 0 -- -- 60
2019-04-10 09:00:00 13.2 10 Noroeste 31 Oeste 0.2 -- -- 66
2019-04-10 08:00:00 10.9 5 Norte 28 Oeste 0 -- -- 71
2019-04-10 07:00:00 10.7 9 Oeste 19 Sudoeste 0 -- -- 71
2019-04-10 06:00:00 9.7 8 Sur 14 Sur 0 -- -- 78
2019-04-10 05:00:00 10 7 Sur 14 Sudoeste 0 -- -- 75
2019-04-10 04:00:00 9.2 9 Sudeste 14 Sur 0 -- -- 81
2019-04-10 03:00:00 10.4 0 Calma 16 Sur 0 -- -- 74
2019-04-10 02:00:00 10.4 7 Sudoeste 14 Sudoeste 0 -- -- 72
2019-04-10 01:00:00 9.1 5 Sur 11 Sudeste 0 -- -- 80
2019-04-10 00:00:00 11 2 Sur 19 Sudoeste 0 -- -- 73
2019-04-09 23:00:00 11.9 6 Sudoeste 22 Oeste 0 -- -- 67
2019-04-09 22:00:00 12.2 12 Sudoeste 27 Oeste 0 -- -- 70
2019-04-09 21:00:00 13.6 11 Oeste 25 Oeste 0 -- -- 73
2019-04-09 20:00:00 14.6 10 Sudoeste 21 Sudoeste 0 -- -- 66
2019-04-09 19:00:00 14.1 5 Sudoeste 60 Noroeste 2 -- -- 78
2019-04-09 18:00:00 19.5 14 Oeste 41 Oeste 0 -- -- 42
2019-04-09 17:00:00 17.8 22 Oeste 57 Oeste 0 -- -- 49
2019-04-09 16:00:00 21.3 15 Oeste 48 Oeste 0 -- -- 35
2019-04-09 15:00:00 21.1 22 Oeste 50 Sudoeste 0 -- -- 35
2019-04-09 14:00:00 20.2 22 Oeste 51 Oeste 0 -- -- 37
2019-04-09 13:00:00 19.1 25 Oeste 50 Noroeste 0 -- -- 41
2019-04-09 12:00:00 19 22 Oeste 46 Oeste 0 -- -- 43
2019-04-09 11:00:00 17.5 18 Oeste 43 Oeste 0 -- -- 47
2019-04-09 10:00:00 16 21 Oeste 44 Oeste 0 -- -- 51
2019-04-09 09:00:00 14.4 5 Oeste 26 Noroeste 0 -- -- 60
2019-04-09 08:00:00 11.6 6 Oeste 16 Oeste 0 -- -- 67
2019-04-09 07:00:00 11.9 6 Sudoeste 17 Oeste 0 -- -- 65
2019-04-09 06:00:00 12.3 8 Sudoeste 19 Oeste 0 -- -- 65
2019-04-09 05:00:00 13.4 7 Sudoeste 22 Oeste 0 -- -- 61
2019-04-09 04:00:00 14.3 6 Oeste 23 Oeste 0 -- -- 61
2019-04-09 03:00:00 14.9 5 Sudoeste 16 Sur 0 -- -- 62
2019-04-09 02:00:00 15 12 Sur 18 Sur 0 -- -- 63
2019-04-09 01:00:00 14.6 7 Sur 15 Sur 0 -- -- 70
2019-04-09 00:00:00 14.5 6 Sur 12 Sudeste 0 -- -- 71
2019-04-08 23:00:00 15.9 5 Sur 17 Sudoeste 0 -- -- 62
2019-04-08 22:00:00 16.8 5 Sudoeste 17 Oeste 0 -- -- 58
2019-04-08 21:00:00 18.2 12 Sudoeste 30 Oeste 0 -- -- 51
2019-04-08 20:00:00 20.1 17 Oeste 36 Sudoeste 0 -- -- 49
2019-04-08 19:00:00 21.6 17 Oeste 31 Sudoeste 0 -- -- 44
2019-04-08 18:00:00 22.3 20 Oeste 37 Sudoeste 0 -- -- 44
2019-04-08 17:00:00 23 9 Sudoeste 24 Oeste 0 -- -- 44
2019-04-08 16:00:00 22.5 12 Noroeste 28 Oeste 0 -- -- 44
2019-04-08 15:00:00 21.8 13 Oeste 32 Sudoeste 0 -- -- 46
2019-04-08 14:00:00 22.1 18 Oeste 37 Oeste 0 -- -- 45
2019-04-08 13:00:00 20.1 14 Oeste 27 Oeste 0 -- -- 53
2019-04-08 12:00:00 18.2 6 Sudoeste 17 Sur 0 -- -- 61
2019-04-08 11:00:00 15.8 10 Sur 18 Sur 0 -- -- 68
2019-04-08 10:00:00 14.8 11 Sur 19 Sudeste 0 -- -- 69
2019-04-08 09:00:00 13.7 9 Sur 16 Sur 0 -- -- 71
2019-04-08 08:00:00 13.8 4 Sur 17 Sur 0 -- -- 71
2019-04-08 07:00:00 13.4 9 Sur 14 Sudoeste 0 -- -- 71
2019-04-08 06:00:00 12.5 9 Sur 13 Sur 0 -- -- 75
2019-04-08 05:00:00 12.5 3 Sur 5 Sudeste 0 -- -- 76
2019-04-08 04:00:00 13.1 2 Sur 9 Sudoeste 0 -- -- 70
2019-04-08 03:00:00 13.9 4 Sudoeste 14 Sur 0 -- -- 63
2019-04-08 02:00:00 14.1 6 Sudeste 10 Sudoeste 0 -- -- 63
2019-04-08 01:00:00 14.5 5 Sur 10 Sudoeste 0 -- -- 61
2019-04-08 00:00:00 15.1 5 Sudoeste 14 Oeste 0 -- -- 57
2019-04-07 23:00:00 15.3 8 Oeste 15 Oeste 0 -- -- 56
2019-04-07 22:00:00 15.9 8 Oeste 17 Oeste 0 -- -- 51
2019-04-07 21:00:00 17 6 Oeste 21 Noroeste 0 -- -- 38
2019-04-07 20:00:00 17.9 9 Oeste 27 Noroeste 0 -- -- 35
2019-04-07 19:00:00 19.1 13 Oeste 31 Oeste 0 -- -- 34
2019-04-07 18:00:00 20.2 15 Noroeste 37 Oeste 0 -- -- 31
2019-04-07 17:00:00 21 14 Oeste 35 Noroeste 0 -- -- 31
2019-04-07 16:00:00 21.1 20 Noroeste 35 Noroeste 0 -- -- 33
2019-04-07 15:00:00 19.6 22 Noroeste 40 Noroeste 0 -- -- 36
2019-04-07 14:00:00 18.9 22 Noroeste 44 Noroeste 0 -- -- 41
2019-04-07 13:00:00 17 18 Noroeste 39 Oeste 0 -- -- 44
2019-04-07 12:00:00 15.7 17 Oeste 36 Oeste 0 -- -- 51
2019-04-07 11:00:00 14.2 18 Oeste 36 Oeste 0 -- -- 52
2019-04-07 10:00:00 12.6 16 Oeste 31 Oeste 0 -- -- 59
2019-04-07 09:00:00 12 13 Noroeste 28 Noroeste 0 -- -- 61
2019-04-07 08:00:00 10.7 17 Noroeste 33 Oeste 0 -- -- 65
2019-04-07 07:00:00 10 8 Noroeste 21 Noroeste 0 -- -- 68
2019-04-07 06:00:00 10.3 3 Este 28 Oeste 0 -- -- 65
2019-04-07 05:00:00 10 9 Oeste 27 Sudoeste 0 -- -- 64
2019-04-07 04:00:00 10.5 15 Oeste 32 Oeste 0 -- -- 63
2019-04-07 03:00:00 9.3 8 Sudoeste 24 Oeste 0 -- -- 70
2019-04-07 02:00:00 9.5 3 Sur 18 Sudoeste 0 -- -- 68
2019-04-07 01:00:00 10.3 7 Sudoeste 21 Sudoeste 0 -- -- 65
2019-04-07 00:00:00 10.8 16 Oeste 29 Sudoeste 0 -- -- 65
2019-04-06 23:00:00 11.3 9 Sudoeste 18 Oeste 0 -- -- 64
2019-04-06 22:00:00 11.7 7 Sudoeste 24 Sudoeste 0 -- -- 61
2019-04-06 21:00:00 12.7 10 Oeste 27 Oeste 0 -- -- 62
2019-04-06 20:00:00 14.7 9 Oeste 28 Oeste 0 -- -- 53
2019-04-06 19:00:00 15 8 Sudoeste 23 Sudoeste 0 -- -- 52
2019-04-06 18:00:00 15.1 11 Sudoeste 42 Oeste 0 -- -- 51
2019-04-06 17:00:00 13.7 18 Oeste 50 Oeste 0.4 -- -- 61
2019-04-06 16:00:00 14.1 7 Sudoeste 44 Noroeste 0.6 -- -- 69
2019-04-06 15:00:00 11.9 6 Noroeste 48 Noroeste 1 -- -- 78
2019-04-06 14:00:00 17.6 18 Noroeste 35 Oeste 0 -- -- 46
2019-04-06 13:00:00 15.5 16 Oeste 39 Oeste 0 -- -- 50
2019-04-06 12:00:00 14.8 16 Oeste 37 Oeste 0 -- -- 54
2019-04-06 11:00:00 14.4 17 Oeste 30 Oeste 0.2 -- -- 52
2019-04-06 10:00:00 12.9 13 Oeste 28 Oeste 0 -- -- 55
2019-04-06 09:00:00 10.2 13 Oeste 27 Sudoeste 0 -- -- 69
2019-04-06 08:00:00 6.9 6 Sudoeste 13 Sur 0 -- -- 83
2019-04-06 07:00:00 8 6 Sur 21 Oeste 0 -- -- 79
2019-04-06 06:00:00 7.7 8 Oeste 23 Oeste 0 -- -- 81
2019-04-06 05:00:00 5.7 3 Este 11 Oeste 0 -- -- 88
2019-04-06 04:00:00 6.6 0 Calma 11 Sudoeste 0 -- -- 84
2019-04-06 03:00:00 6.2 3 Sudeste 11 Sudoeste 0 -- -- 88
2019-04-06 02:00:00 7.5 7 Sudoeste 14 Sur 0 -- -- 86
2019-04-06 01:00:00 7.1 4 Sudoeste 11 Sudoeste 0 -- -- 87
2019-04-06 00:00:00 8.4 6 Sudoeste 14 Sur 0 -- -- 84
2019-04-05 23:00:00 9.2 8 Sur 14 Sudoeste 0 -- -- 88
2019-04-05 22:00:00 10 4 Sudoeste 14 Oeste 0 -- -- 91
2019-04-05 21:00:00 10.4 6 Sur 13 Sur 0 -- -- 93
2019-04-05 20:00:00 10.8 4 Sur 14 Este 0 -- -- 93
2019-04-05 19:00:00 10.6 3 Sudoeste 20 Oeste 0.8 -- -- 92
2019-04-05 18:00:00 10.7 8 Sur 20 Oeste 4.4 -- -- 88
2019-04-05 17:00:00 12.3 9 Noroeste 31 Noroeste 0.6 -- -- 76
2019-04-05 16:00:00 14.6 26 Noroeste 53 Noroeste 0.2 -- -- 67
2019-04-05 15:00:00 19 9 Sudeste 32 Noroeste 0 -- -- 47
2019-04-05 14:00:00 20.4 5 Sudeste 13 Sur 0 -- -- 32
2019-04-05 13:00:00 19 9 Sudeste 18 Sur 0 -- -- 41
2019-04-05 12:00:00 18.2 6 Sur 16 Sudeste 0 -- -- 43
2019-04-05 11:00:00 16.6 8 Sur 20 Sur 0 -- -- 55
2019-04-05 10:00:00 14.1 10 Sur 18 Sur 0 -- -- 67
2019-04-05 09:00:00 10.9 10 Sur 15 Sur 0 -- -- 81
2019-04-05 08:00:00 9.6 7 Sudoeste 17 Sur 0 -- -- 84
2019-04-05 07:00:00 8.4 9 Sur 14 Sur 0 -- -- 87
2019-04-05 06:00:00 8.3 0 Calma 13 Sur 0 -- -- 88
2019-04-05 05:00:00 6.9 2 Sudoeste 8 Sur 0 -- -- 91
2019-04-05 04:00:00 7.5 0 Calma 6 Sur 0 -- -- 88
2019-04-05 03:00:00 7.4 3 Sur 7 Sudeste 0 -- -- 87
2019-04-05 02:00:00 7.7 3 Sur 6 Sur 0 -- -- 85
2019-04-05 01:00:00 8.9 4 Sudeste 9 Sur 0 -- -- 80
2019-04-05 00:00:00 10.1 3 Sur 12 Sudoeste 0 -- -- 77
2019-04-04 23:00:00 12.1 8 Sudoeste 16 Sur 0 -- -- 67
2019-04-04 22:00:00 13 10 Sur 17 Sur 0 -- -- 64
2019-04-04 21:00:00 13.9 6 Sur 28 Este 0 -- -- 63
2019-04-04 20:00:00 15.6 15 Este 28 Este 0 -- -- 57
2019-04-04 19:00:00 17.4 16 Este 31 Este 0 -- -- 52
2019-04-04 18:00:00 17.8 18 Sudeste 33 Este 0 -- -- 51
2019-04-04 17:00:00 18.2 21 Este 36 Este 0 -- -- 46
2019-04-04 16:00:00 20.3 5 Norte 15 Norte 0 -- -- 29
2019-04-04 15:00:00 19.3 6 Noroeste 21 Oeste 0 -- -- 30
2019-04-04 14:00:00 18 7 Nordeste 19 Sur 0 -- -- 32
2019-04-04 13:00:00 17.6 8 Oeste 19 Oeste 0 -- -- 34
2019-04-04 12:00:00 16.3 4 Oeste 20 Nordeste 0 -- -- 38
2019-04-04 11:00:00 14.4 4 Sur 8 Sudoeste 0 -- -- 47
2019-04-04 10:00:00 11.7 2 Sur 8 Sur 0 -- -- 76
2019-04-04 09:00:00 10.5 3 Sur 6 Sur 0 -- -- 83
2019-04-04 08:00:00 7.6 5 Sudeste 7 Sudeste 0 -- -- 88
2019-04-04 07:00:00 9.5 3 Sudeste 5 Sudeste 0 -- -- 82
2019-04-04 06:00:00 11.4 3 Noroeste 13 Sur 0 -- -- 74
2019-04-04 05:00:00 11.9 2 Sudeste 13 Este 0 -- -- 67
2019-04-04 04:00:00 12.1 7 Nordeste 22 Este 0 -- -- 62
2019-04-04 03:00:00 11.9 8 Este 19 Este 0 -- -- 67
2019-04-04 02:00:00 11.7 5 Este 15 Nordeste 0 -- -- 80
2019-04-04 01:00:00 11.1 3 Este 5 Nordeste 0 -- -- 87
2019-04-04 00:00:00 11.5 3 Sudeste 15 Nordeste 0 -- -- 82
2019-04-03 23:00:00 13 7 Nordeste 35 Nordeste 0 -- -- 76
2019-04-03 22:00:00 13.5 13 Nordeste 44 Nordeste 0 -- -- 79
2019-04-03 21:00:00 15 28 Nordeste 48 Nordeste 0 -- -- 78
2019-04-03 20:00:00 21.8 13 Noroeste 26 Oeste 0 -- -- 39
2019-04-03 19:00:00 23 12 Oeste 31 Noroeste 0 -- -- 38
2019-04-03 18:00:00 24.1 19 Noroeste 32 Oeste 0 -- -- 35
2019-04-03 17:00:00 24.5 14 Oeste 32 Oeste 0 -- -- 34
2019-04-03 16:00:00 25.5 16 Oeste 39 Sudoeste 0 -- -- 35
2019-04-03 15:00:00 24.3 15 Noroeste 29 Noroeste 0 -- -- 38
2019-04-03 14:00:00 24.6 15 Oeste 26 Oeste 0 -- -- 37
2019-04-03 13:00:00 22.5 7 Sudoeste 15 Sudoeste 0 -- -- 44
2019-04-03 12:00:00 20.9 4 Oeste 17 Oeste 0 -- -- 49
2019-04-03 11:00:00 18.8 5 Sudoeste 14 Sur 0 -- -- 60
2019-04-03 10:00:00 15.4 5 Oeste 10 Oeste 0 -- -- 80
2019-04-03 09:00:00 11.4 3 Sudoeste 9 Sur 0 -- -- 95
2019-04-03 08:00:00 8.4 3 Sudoeste 9 Sudoeste 0 -- -- 93
2019-04-03 07:00:00 8.3 4 Sudoeste 11 Sudoeste 0 -- -- 93
2019-04-03 06:00:00 8.9 6 Sur 8 Sur 0 -- -- 92
2019-04-03 05:00:00 9.8 6 Sur 9 Sur 0 -- -- 92
2019-04-03 04:00:00 9.8 5 Sur 10 Sur 0 -- -- 92
2019-04-03 03:00:00 9.9 6 Sur 9 Sudoeste 0 -- -- 93
2019-04-03 02:00:00 10.2 5 Sur 9 Sur 0 -- -- 93
2019-04-03 01:00:00 10.4 4 Sudoeste 10 Sur 0 -- -- 92
2019-04-03 00:00:00 10.6 3 Sudoeste 6 Sudeste 0 -- -- 91
2019-04-02 23:00:00 11.4 3 Nordeste 5 Este 0 -- -- 89
2019-04-02 22:00:00 13 0 Calma 7 Sur 0 -- -- 88
2019-04-02 21:00:00 14.1 4 Sudeste 6 Sudeste 0 -- -- 84
2019-04-02 20:00:00 16.7 5 Sudoeste 15 Oeste 0 -- -- 73
2019-04-02 19:00:00 17.1 8 Este 30 Nordeste 0 -- -- 63
2019-04-02 18:00:00 17.3 20 Nordeste 43 Norte 0 -- -- 71
2019-04-02 17:00:00 22.8 8 Sur 25 Oeste 0 -- -- 45
2019-04-02 16:00:00 22.9 5 Oeste 18 Sudoeste 0 -- -- 46
2019-04-02 15:00:00 22.6 4 Oeste 22 Oeste 0 -- -- 48
2019-04-02 14:00:00 21.2 15 Oeste 27 Noroeste 0 -- -- 54
2019-04-02 13:00:00 21.2 16 Oeste 29 Noroeste 0 -- -- 58
2019-04-02 12:00:00 19.6 12 Oeste 21 Sudoeste 0.2 -- -- 64
2019-04-02 11:00:00 16.7 10 Sudoeste 16 Sudoeste 0 -- -- 74
2019-04-02 10:00:00 12.5 7 Sur 13 Sur 0 -- -- 95
2019-04-02 09:00:00 10.5 5 Sur 9 Sur 0 -- -- 98
2019-04-02 08:00:00 8.2 0 Calma 9 Sur 0 -- -- 96
2019-04-02 07:00:00 9.4 8 Sur 12 Sur 0 -- -- 97
2019-04-02 06:00:00 8.2 5 Sur 9 Sur 0 -- -- 96
2019-04-02 05:00:00 7.8 3 Sur 5 Sudeste 0 -- -- 95
2019-04-02 04:00:00 8.7 4 Sur 6 Sudeste 0 -- -- 94
2019-04-02 03:00:00 10.1 0 Calma 11 Sur 0 -- -- 94
2019-04-02 02:00:00 10.5 7 Sur 10 Sur 0 -- -- 95
2019-04-02 01:00:00 11.5 3 Sur 5 Sur 0 -- -- 94
2019-04-02 00:00:00 11.9 2 Sur 5 Sur 0 -- -- 94
2019-04-01 23:00:00 12.1 5 Sur 9 Sur 0 -- -- 93
2019-04-01 22:00:00 13.4 2 Sudeste 6 Sudeste 0 -- -- 91
2019-04-01 21:00:00 13.9 3 Sur 4 Sur 0 -- -- 90
2019-04-01 20:00:00 14.6 0 Calma 5 Sudoeste 0 -- -- 84
2019-04-01 19:00:00 15 3 Sudoeste 9 Sur 0 -- -- 82
2019-04-01 18:00:00 15.1 2 Sudeste 11 Este 0 -- -- 81
2019-04-01 17:00:00 14.9 4 Este 12 Nordeste 0 -- -- 79
2019-04-01 16:00:00 14.8 5 Nordeste 9 Nordeste 0 -- -- 81
2019-04-01 15:00:00 13.7 3 Norte 10 Nordeste 0 -- -- 85
2019-04-01 14:00:00 13.3 5 Nordeste 12 Nordeste 0 -- -- 92
2019-04-01 13:00:00 12.8 0 Calma 11 Nordeste 0 -- -- 97
2019-04-01 12:00:00 12.3 6 Nordeste 13 Nordeste 0 -- -- 97
2019-04-01 11:00:00 12.2 7 Nordeste 18 Nordeste 0.6 -- -- 98
2019-04-01 10:00:00 11.9 6 Sudeste 12 Este 5.4 -- -- 98
2019-04-01 09:00:00 12.1 4 Sudeste 20 Este 5.2 -- -- 97
2019-04-01 08:00:00 11.9 3 Noroeste 10 Oeste 0.6 -- -- 97
2019-04-01 07:00:00 11.8 5 Norte 10 Norte 1.2 -- -- 97
2019-04-01 06:00:00 11.6 5 Noroeste 8 Noroeste 1.4 -- -- 97
2019-04-01 05:00:00 11.5 0 Calma 6 Norte 1 -- -- 97
2019-04-01 04:00:00 11.5 0 Calma 17 Nordeste 0.8 -- -- 96
2019-04-01 03:00:00 11.4 7 Nordeste 14 Nordeste 0.4 -- -- 96
2019-04-01 02:00:00 11.4 3 Norte 15 Norte 1 -- -- 96
2019-04-01 01:00:00 11.5 7 Nordeste 17 Norte 0.8 -- -- 96
2019-04-01 00:00:00 12 6 Nordeste 22 Este 2.2 -- -- 95
2019-03-31 23:00:00 12.3 9 Este 27 Nordeste 0.4 -- -- 96
2019-03-31 22:00:00 12.8 9 Nordeste 29 Este 2.2 -- -- 96
2019-03-31 21:00:00 12.7 16 Nordeste 31 Este 1.2 -- -- 96
2019-03-31 20:00:00 12.8 12 Nordeste 30 Nordeste 4.4 -- -- 96
2019-03-31 19:00:00 12.8 10 Norte 33 Nordeste 2 -- -- 96
2019-03-31 18:00:00 13 14 Nordeste 30 Norte 1 -- -- 95
2019-03-31 17:00:00 13.2 14 Nordeste 31 Este 0.6 -- -- 95
2019-03-31 16:00:00 12.8 13 Nordeste 26 Este 5.6 -- -- 96
2019-03-31 15:00:00 12 8 Norte 24 Norte 6 -- -- 96
2019-03-31 14:00:00 11.8 9 Nordeste 18 Nordeste 5.4 -- -- 96
2019-03-31 13:00:00 10.9 3 Sudoeste 10 Noroeste 4.2 -- -- 95
2019-03-31 12:00:00 10.9 5 Noroeste 12 Nordeste 1.6 -- -- 95
2019-03-31 11:00:00 10.5 3 Oeste 12 Norte 0.8 -- -- 96
2019-03-31 10:00:00 9.9 0 Calma 11 Sudeste 3 -- -- 95
2019-03-31 09:00:00 9.7 0 Calma 12 Sur 2.4 -- -- 94
2019-03-31 08:00:00 9.8 2 Sudoeste 5 Sur 3.2 -- -- 93
2019-03-31 07:00:00 9.6 4 Sur 6 Sur 0.6 -- -- 91
2019-03-31 06:00:00 9.5 0 Calma 6 Sur 0 -- -- 89
2019-03-31 05:00:00 8.9 5 Sur 9 Sur 0 -- -- 91
2019-03-31 03:00:00 7.4 2 Sudoeste 4 Sur 0 -- -- 89
2019-03-31 01:00:00 7.9 2 Sur 6 Sur 0 -- -- 90
2019-03-31 00:00:00 7.4 3 Sur 6 Sur 0 -- -- 90
2019-03-30 23:00:00 7.5 4 Nordeste 7 Nordeste 0 -- -- 88
2019-03-30 22:00:00 8.7 2 Sudeste 4 Sudoeste 0 -- -- 81
2019-03-30 21:00:00 10.9 2 Nordeste 6 Nordeste 0 -- -- 75
2019-03-30 20:00:00 12.2 4 Nordeste 9 Este 0 -- -- 72
2019-03-30 19:00:00 13.9 5 Este 15 Sudeste 0 -- -- 65
2019-03-30 18:00:00 15.4 8 Este 19 Nordeste 0 -- -- 58
2019-03-30 17:00:00 16.2 11 Este 22 Este 0 -- -- 58
2019-03-30 16:00:00 16.1 10 Este 27 Nordeste 0 -- -- 61
2019-03-30 15:00:00 15.9 17 Este 28 Este 0 -- -- 63
2019-03-30 14:00:00 14.9 12 Nordeste 23 Este 0 -- -- 67
2019-03-30 13:00:00 15.1 12 Nordeste 21 Nordeste 0 -- -- 67
2019-03-30 12:00:00 15.1 10 Nordeste 21 Nordeste 0 -- -- 67
2019-03-30 11:00:00 15.4 10 Nordeste 19 Nordeste 0 -- -- 63
2019-03-30 10:00:00 12.6 4 Norte 8 Norte 0 -- -- 74
2019-03-30 09:00:00 9.8 3 Sur 8 Sur 0 -- -- 87
2019-03-30 08:00:00 6.3 0 Calma 4 Sur 0 -- -- 96
2019-03-30 07:00:00 5.1 3 Sur 6 Sudeste 0 -- -- 95
2019-03-30 06:00:00 4.9 3 Sur 6 Sur 0 -- -- 94
2019-03-30 05:00:00 4.8 4 Sur 6 Sur 0 -- -- 93
2019-03-30 04:00:00 5.8 3 Sur 8 Sur 0 -- -- 93
2019-03-30 03:00:00 6.2 4 Sur 8 Sur 0 -- -- 94
2019-03-30 02:00:00 4.8 4 Sur 8 Sur 0 -- -- 91
2019-03-30 01:00:00 5 0 Calma 5 Sudoeste 0 -- -- 89
2019-03-30 00:00:00 5.7 2 Sudeste 4 Sudeste 0 -- -- 89
2019-03-29 23:00:00 6.3 0 Calma 4 Sudeste 0 -- -- 84
2019-03-29 22:00:00 7.9 0 Calma 3 Sudoeste 0 -- -- 81
2019-03-29 21:00:00 10.8 2 Este 10 Este 0 -- -- 75
2019-03-29 20:00:00 12.7 6 Este 13 Este 0 -- -- 72
2019-03-29 19:00:00 14.7 7 Este 18 Este 0 -- -- 62
2019-03-29 18:00:00 15.7 11 Este 26 Nordeste 0 -- -- 57
2019-03-29 17:00:00 16.7 13 Este 27 Este 0 -- -- 50
2019-03-29 16:00:00 18.2 15 Este 36 Este 0 -- -- 44
2019-03-29 15:00:00 18.6 21 Este 35 Este 0 -- -- 46
2019-03-29 14:00:00 18.7 16 Este 28 Este 0 -- -- 45
2019-03-29 13:00:00 18.6 12 Este 26 Este 0 -- -- 44
2019-03-29 12:00:00 17.8 9 Nordeste 22 Sudeste 0 -- -- 53
2019-03-29 11:00:00 15.1 9 Norte 14 Nordeste 0 -- -- 66
2019-03-29 10:00:00 14.4 3 Nordeste 10 Norte 0 -- -- 67
2019-03-29 09:00:00 12.1 4 Sudoeste 12 Sur 0 -- -- 70
2019-03-29 08:00:00 8.5 5 Sur 8 Sur 0 -- -- 89
2019-03-29 07:00:00 6.3 5 Sur 7 Sur 0 -- -- 90
2019-03-29 06:00:00 7.5 3 Sur 6 Sudeste 0 -- -- 92
2019-03-29 05:00:00 6.9 4 Sur 6 Sur 0 -- -- 94
2019-03-29 04:00:00 5.4 0 Calma 8 Sur 0 -- -- 92
2019-03-29 03:00:00 5 4 Sudeste 5 Sur 0 -- -- 93
2019-03-29 02:00:00 3.9 3 Sur 5 Sur 0 -- -- 88
2019-03-29 01:00:00 4.9 0 Calma 4 Sur 0 -- -- 86
2019-03-29 00:00:00 6.4 0 Calma 6 Sudoeste 0 -- -- 84
2019-03-28 23:00:00 8.5 3 Sur 8 Sudoeste 0 -- -- 81
2019-03-28 22:00:00 11.2 4 Nordeste 9 Este 0 -- -- 79
2019-03-28 21:00:00 11.9 5 Norte 12 Nordeste 0 -- -- 72
2019-03-28 20:00:00 12.9 7 Nordeste 15 Nordeste 0 -- -- 62
2019-03-28 19:00:00 15.1 5 Este 24 Este 0 -- -- 57
2019-03-28 18:00:00 17.1 13 Este 24 Este 0 -- -- 38
2019-03-28 17:00:00 18.3 14 Este 25 Este 0 -- -- 30
2019-03-28 16:00:00 19.7 12 Este 39 Este 0 -- -- 28
2019-03-28 15:00:00 19.9 14 Este 27 Nordeste 0 -- -- 26
2019-03-28 14:00:00 20.3 15 Nordeste 29 Nordeste 0 -- -- 25
2019-03-28 13:00:00 20.2 13 Nordeste 23 Este 0 -- -- 26
2019-03-28 12:00:00 18.8 6 Este 14 Noroeste 0 -- -- 28
2019-03-28 11:00:00 17 4 Sudoeste 14 Sur 0 -- -- 39
2019-03-28 10:00:00 13.9 7 Sur 15 Sudoeste 0 -- -- 47
2019-03-28 09:00:00 10.3 11 Sur 18 Sur 0 -- -- 48
2019-03-28 08:00:00 6.6 9 Sur 18 Sur 0 -- -- 66
2019-03-28 07:00:00 4.3 10 Sur 17 Sudeste 0 -- -- 71
2019-03-28 06:00:00 4.1 9 Sur 13 Sur 0 -- -- 74
2019-03-28 05:00:00 3.7 6 Sur 13 Sur 0 -- -- 76
2019-03-28 04:00:00 4.6 9 Sur 14 Sur 0 -- -- 71
2019-03-28 03:00:00 4.7 7 Sur 13 Sur 0 -- -- 73
2019-03-28 02:00:00 5.2 9 Sur 12 Sur 0 -- -- 76
2019-03-28 01:00:00 3.4 6 Sur 9 Sur 0 -- -- 89
2019-03-28 00:00:00 3.6 3 Sudoeste 5 Sudoeste 0 -- -- 85
2019-03-27 23:00:00 4.7 2 Sur 5 Sudeste 0 -- -- 81
2019-03-27 22:00:00 7.2 2 Sur 6 Sudeste 0 -- -- 76
2019-03-27 21:00:00 10.4 2 Este 12 Este 0 -- -- 67
2019-03-27 20:00:00 12.4 7 Este 16 Este 0 -- -- 58
2019-03-27 19:00:00 15 4 Nordeste 17 Este 0 -- -- 46
2019-03-27 18:00:00 16.7 10 Este 20 Sudeste 0 -- -- 32
2019-03-27 17:00:00 18 10 Sudeste 23 Este 0 -- -- 31
2019-03-27 16:00:00 18.5 13 Este 23 Este 0 -- -- 30
2019-03-27 15:00:00 19.2 9 Este 29 Nordeste 0 -- -- 29
2019-03-27 14:00:00 19 12 Este 31 Este 0 -- -- 30
2019-03-27 13:00:00 18.6 9 Norte 27 Norte 0 -- -- 33
2019-03-27 12:00:00 17.7 8 Nordeste 24 Norte 0 -- -- 35
2019-03-27 11:00:00 16 4 Noroeste 10 Sur 0 -- -- 48
2019-03-27 10:00:00 13.5 5 Sudoeste 12 Sur 0 -- -- 58
2019-03-27 09:00:00 10.2 9 Sur 15 Sur 0 -- -- 70
2019-03-27 08:00:00 6.6 7 Sur 11 Sur 0 -- -- 89
2019-03-27 07:00:00 4.5 8 Sur 12 Sur 0 -- -- 91
2019-03-27 06:00:00 4.5 6 Sur 13 Sur 0 -- -- 91
2019-03-27 05:00:00 3.6 5 Sur 10 Sur 0 -- -- 93
2019-03-27 04:00:00 2.9 3 Sur 7 Sur 0 -- -- 90
2019-03-27 03:00:00 3.3 4 Sur 5 Sur 0 -- -- 89
2019-03-27 02:00:00 3.9 3 Sur 5 Sur 0 -- -- 87
2019-03-27 01:00:00 4.9 2 Sur 6 Sur 0 -- -- 84
2019-03-27 00:00:00 6.5 2 Sudeste 7 Sur 0 -- -- 82